Time;durP1;ratioP1;P1;durP2;ratioP2;P2;SDS_P1;SDS_P2;PMS_P1;PMS_P2;Temp;Humidity;BMP_temperature;BMP_pressure;BME280_temperature;BME280_humidity;BME280_pressure;Samples;Min_cycle;Max_cycle;Signal;HPM_P1;HPM_P2
2023/05/23 00:01:23;;;;;;;19.35;14.07;;;19.20;99.90;;;;;;4992235;28;20039;-71
2023/05/23 00:03:49;;;;;;;21.42;14.32;;;19.10;99.90;;;;;;4992002;28;20369;-71
2023/05/23 00:06:20;;;;;;;18.73;14.13;;;19.10;99.90;;;;;;4992576;28;20026;-71
2023/05/23 00:08:45;;;;;;;23.35;13.48;;;18.90;99.90;;;;;;5011901;28;20104;-70
2023/05/23 00:11:12;;;;;;;22.85;15.15;;;18.80;99.90;;;;;;5011646;28;20030;-71
2023/05/23 00:13:38;;;;;;;20.90;14.40;;;18.70;99.90;;;;;;5011655;28;20030;-70
2023/05/23 00:16:08;;;;;;;23.20;14.43;;;18.80;99.90;;;;;;5011752;28;20423;-70
2023/05/23 00:18:34;;;;;;;20.45;14.65;;;18.90;99.90;;;;;;5010471;28;20168;-70
2023/05/23 00:21:01;;;;;;;22.45;14.13;;;18.90;99.90;;;;;;5012447;28;20022;-71
2023/05/23 00:23:28;;;;;;;20.17;13.85;;;18.90;99.90;;;;;;5011413;28;20141;-71
2023/05/23 00:25:54;;;;;;;20.77;14.27;;;19.00;99.90;;;;;;5011499;28;20042;-70
2023/05/23 00:28:21;;;;;;;18.10;13.30;;;19.00;99.90;;;;;;5011442;28;20298;-71
2023/05/23 00:30:49;;;;;;;17.65;12.65;;;19.00;99.90;;;;;;5011106;28;20104;-71
2023/05/23 00:33:16;;;;;;;22.48;13.32;;;19.00;99.90;;;;;;5011788;28;20045;-71
2023/05/23 00:35:42;;;;;;;20.27;13.27;;;19.00;99.90;;;;;;5011391;28;20030;-70
2023/05/23 00:38:07;;;;;;;21.58;13.88;;;19.00;99.90;;;;;;5010106;28;20049;-70
2023/05/23 00:40:33;;;;;;;21.73;14.35;;;19.00;99.90;;;;;;5011201;28;20022;-70
2023/05/23 00:43:00;;;;;;;23.63;17.27;;;19.20;99.90;;;;;;5011452;28;20095;-70
2023/05/23 00:45:26;;;;;;;26.55;17.63;;;18.80;99.90;;;;;;5010991;28;20021;-70
2023/05/23 00:47:53;;;;;;;30.48;18.55;;;18.80;99.90;;;;;;5011495;28;20022;-70
2023/05/23 00:50:19;;;;;;;35.13;24.60;;;18.80;99.90;;;;;;5009871;28;20092;-69
2023/05/23 00:52:47;;;;;;;35.78;24.55;;;18.60;99.90;;;;;;5010952;28;20103;-71
2023/05/23 00:55:13;;;;;;;40.83;27.02;;;18.50;99.90;;;;;;5011028;28;20171;-71
2023/05/23 00:57:40;;;;;;;41.83;27.83;;;18.50;99.90;;;;;;5010936;28;20040;-71
2023/05/23 01:00:12;;;;;;;38.70;26.77;;;18.50;99.90;;;;;;5011415;28;20022;-70
2023/05/23 01:02:44;;;;;;;54.33;32.97;;;18.60;99.90;;;;;;5009853;28;20030;-71
2023/05/23 01:05:13;;;;;;;47.75;31.17;;;18.40;99.90;;;;;;5011179;28;20518;-72
2023/05/23 01:07:40;;;;;;;49.88;33.15;;;18.30;99.90;;;;;;5010940;28;20045;-69
2023/05/23 01:10:07;;;;;;;59.63;36.13;;;18.30;99.90;;;;;;5009822;28;20034;-71
2023/05/23 01:12:41;;;;;;;53.83;34.55;;;18.20;99.90;;;;;;5010730;28;20030;-71
2023/05/23 01:15:16;;;;;;;49.05;32.13;;;18.20;99.90;;;;;;5011222;28;20033;-70
2023/05/23 01:17:52;;;;;;;55.13;34.05;;;18.10;99.90;;;;;;4991307;28;20069;-70
2023/05/23 01:21:01;;;;;;;54.30;32.35;;;18.10;99.90;;;;;;4991066;28;20482;-70
2023/05/23 01:23:58;;;;;;;50.72;32.40;;;17.90;99.90;;;;;;4983155;28;20461;-71
2023/05/23 01:26:33;;;;;;;43.45;28.05;;;17.40;99.90;;;;;;5010670;28;20029;-70
2023/05/23 01:29:33;;;;;;;40.50;26.45;;;17.30;99.90;;;;;;5010514;28;20617;-70
2023/05/23 01:32:00;;;;;;;41.33;26.77;;;17.20;99.90;;;;;;5010291;28;20053;-71
2023/05/23 01:34:27;;;;;;;36.50;24.53;;;17.20;99.90;;;;;;5010619;28;20080;-70
2023/05/23 01:36:54;;;;;;;36.60;25.33;;;17.30;99.90;;;;;;5021713;28;20349;-71
2023/05/23 01:39:21;;;;;;;37.15;25.50;;;17.30;99.90;;;;;;4993862;28;20030;-70
2023/05/23 01:41:48;;;;;;;41.10;25.30;;;17.30;99.90;;;;;;5031046;28;20131;-71
2023/05/23 01:44:15;;;;;;;41.33;24.15;;;17.20;99.90;;;;;;5014433;28;20087;-71
2023/05/23 01:46:43;;;;;;;39.35;24.55;;;17.20;99.90;;;;;;5021974;28;20080;-71
2023/05/23 01:49:11;;;;;;;33.17;23.08;;;17.30;99.90;;;;;;5023257;28;20029;-70
2023/05/23 01:51:37;;;;;;;;;;;17.30;99.90;;;;;;5013611;28;20037;-70
2023/05/23 01:54:03;;;;;;;30.92;20.73;;;17.30;99.90;;;;;;5030665;28;19909;-71
2023/05/23 01:56:29;;;;;;;30.05;21.02;;;17.30;99.90;;;;;;5012043;28;20061;-70
2023/05/23 01:58:55;;;;;;;33.30;20.80;;;17.30;99.90;;;;;;5027631;28;20041;-70
2023/05/23 02:01:21;;;;;;;32.25;19.55;;;17.20;99.90;;;;;;5024920;28;20042;-70
2023/05/23 02:03:46;;;;;;;32.03;20.95;;;17.20;99.90;;;;;;5018316;28;20523;-70
2023/05/23 02:06:12;;;;;;;30.17;19.25;;;16.90;99.90;;;;;;5034282;28;20182;-71
2023/05/23 02:08:38;;;;;;;28.13;18.60;;;17.00;99.90;;;;;;5014564;28;20053;-70
2023/05/23 02:11:04;;;;;;;29.33;20.23;;;17.20;99.90;;;;;;5028755;28;20467;-70
2023/05/23 02:13:30;;;;;;;29.88;19.00;;;17.00;99.90;;;;;;5023701;28;20387;-69
2023/05/23 02:15:55;;;;;;;29.13;18.02;;;16.90;99.90;;;;;;5019521;28;20289;-70
2023/05/23 02:18:21;;;;;;;26.17;18.25;;;17.00;99.90;;;;;;5032686;28;20021;-70
2023/05/23 02:20:47;;;;;;;28.73;17.77;;;16.90;99.90;;;;;;5014263;28;20105;-70
2023/05/23 02:23:12;;;;;;;31.05;19.38;;;16.80;99.90;;;;;;5029311;28;20033;-70
2023/05/23 02:25:38;;;;;;;27.75;18.10;;;16.90;99.90;;;;;;5022209;28;20033;-70
2023/05/23 02:28:04;;;;;;;26.55;18.33;;;16.90;99.90;;;;;;5020331;28;20034;-70
2023/05/23 02:30:29;;;;;;;27.58;17.48;;;16.80;99.90;;;;;;5031155;28;20025;-70
2023/05/23 02:32:57;;;;;;;25.15;17.67;;;16.80;99.90;;;;;;5014451;28;20033;-70
2023/05/23 02:35:22;;;;;;;24.40;16.60;;;16.70;99.90;;;;;;5013134;28;20022;-70
2023/05/23 02:37:48;;;;;;;25.23;17.08;;;16.80;99.90;;;;;;5003237;28;20022;-71
2023/05/23 02:40:14;;;;;;;26.85;16.90;;;16.90;99.90;;;;;;5021214;28;20423;-71
2023/05/23 02:42:39;;;;;;;25.02;15.98;;;16.70;99.90;;;;;;5030028;28;20419;-70
2023/05/23 02:45:05;;;;;;;26.58;16.85;;;16.80;99.90;;;;;;5013971;28;20022;-70
2023/05/23 02:47:31;;;;;;;24.15;16.98;;;16.80;99.90;;;;;;5031839;28;20029;-69
2023/05/23 02:49:57;;;;;;;24.10;16.60;;;16.90;99.90;;;;;;5019397;28;20137;-70
2023/05/23 02:52:24;;;;;;;23.15;16.23;;;16.90;99.90;;;;;;5022187;28;20037;-70
2023/05/23 02:54:50;;;;;;;28.95;17.05;;;16.80;99.90;;;;;;5028324;28;20551;-69
2023/05/23 02:57:15;;;;;;;22.80;15.10;;;16.70;99.90;;;;;;5013860;28;20116;-69
2023/05/23 02:59:41;;;;;;;24.80;15.30;;;16.60;99.90;;;;;;5015511;28;20052;-69
2023/05/23 03:02:07;;;;;;;19.73;13.98;;;16.70;99.90;;;;;;5015317;28;20112;-70
2023/05/23 03:04:32;;;;;;;21.80;13.95;;;16.70;99.90;;;;;;5032640;28;20116;-69
2023/05/23 03:06:58;;;;;;;20.77;14.15;;;16.70;99.90;;;;;;5032514;28;20368;-70
2023/05/23 03:09:24;;;;;;;22.48;13.45;;;16.80;99.90;;;;;;5013788;28;20026;-69
2023/05/23 03:11:50;;;;;;;23.58;13.10;;;16.80;99.90;;;;;;5032929;28;20355;-70
2023/05/23 03:14:16;;;;;;;24.70;13.98;;;16.70;99.90;;;;;;5032621;28;20026;-70
2023/05/23 03:16:41;;;;;;;21.52;14.38;;;16.70;99.90;;;;;;5032615;28;20481;-70
2023/05/23 03:19:07;;;;;;;21.42;14.60;;;16.50;99.90;;;;;;5032826;28;20420;-70
2023/05/23 03:21:34;;;;;;;22.30;14.23;;;16.50;99.90;;;;;;5032223;28;20041;-70
2023/05/23 03:24:00;;;;;;;21.67;14.20;;;16.60;99.90;;;;;;5032541;28;20029;-69
2023/05/23 03:26:26;;;;;;;27.02;14.25;;;16.70;99.90;;;;;;5032258;28;20039;-68
2023/05/23 03:28:51;;;;;;;22.50;14.95;;;16.70;99.90;;;;;;5032192;28;20476;-69
2023/05/23 03:31:17;;;;;;;23.70;14.85;;;16.80;99.90;;;;;;5031964;28;20049;-70
2023/05/23 03:33:43;;;;;;;22.35;14.25;;;16.70;99.90;;;;;;5032034;28;20033;-69
2023/05/23 03:36:08;;;;;;;25.15;15.13;;;16.70;99.90;;;;;;5032551;28;20533;-70
2023/05/23 03:38:34;;;;;;;25.15;14.95;;;16.70;99.90;;;;;;5031991;28;20036;-69
2023/05/23 03:41:00;;;;;;;24.98;15.23;;;16.70;99.90;;;;;;5032014;28;20129;-69
2023/05/23 03:43:26;;;;;;;26.27;16.00;;;16.70;99.90;;;;;;5014485;28;20033;-69
2023/05/23 03:45:51;;;;;;;30.42;17.25;;;16.70;99.90;;;;;;5031819;28;20049;-69
2023/05/23 03:48:17;;;;;;;29.77;17.17;;;16.60;99.90;;;;;;5032143;28;20021;-68
2023/05/23 03:50:42;;;;;;;23.52;15.70;;;16.50;99.90;;;;;;5014787;28;20162;-70
2023/05/23 03:53:08;;;;;;;30.08;17.38;;;16.50;99.90;;;;;;5031595;28;20112;-69
2023/05/23 03:55:34;;;;;;;23.88;15.90;;;16.50;99.90;;;;;;5031576;28;20483;-68
2023/05/23 03:57:59;;;;;;;23.73;15.80;;;16.60;99.90;;;;;;5031528;28;20071;-70
2023/05/23 04:00:25;;;;;;;25.40;15.85;;;16.60;99.90;;;;;;5031420;28;20029;-68
2023/05/23 04:02:51;;;;;;;25.50;15.75;;;16.50;99.90;;;;;;5014452;28;20032;-70
2023/05/23 04:05:17;;;;;;;23.25;15.13;;;16.40;99.90;;;;;;5031492;28;20026;-70
2023/05/23 04:07:43;;;;;;;25.05;15.02;;;16.50;99.90;;;;;;5031293;28;20029;-69
2023/05/23 04:10:09;;;;;;;21.58;14.73;;;16.60;99.90;;;;;;5014090;28;20360;-70
2023/05/23 04:12:35;;;;;;;21.50;14.30;;;16.60;99.90;;;;;;5014025;28;20037;-70
2023/05/23 04:15:02;;;;;;;21.95;14.38;;;16.60;99.90;;;;;;5031720;28;20036;-70
2023/05/23 04:17:29;;;;;;;23.77;14.15;;;16.50;99.90;;;;;;5031351;28;20022;-70
2023/05/23 04:19:55;;;;;;;20.02;12.65;;;16.60;99.90;;;;;;5030698;28;20117;-69
2023/05/23 04:22:21;;;;;;;21.35;11.82;;;16.50;99.90;;;;;;5004763;28;20037;-69
2023/05/23 04:24:47;;;;;;;19.63;13.13;;;16.60;99.90;;;;;;4993911;28;20096;-69
2023/05/23 04:27:13;;;;;;;17.48;11.90;;;16.60;99.90;;;;;;5011908;28;20088;-69
2023/05/23 04:29:41;;;;;;;18.60;10.80;;;16.60;99.90;;;;;;5011243;28;20030;-69
2023/05/23 04:32:07;;;;;;;19.52;11.70;;;16.60;99.90;;;;;;5010979;28;20049;-70
2023/05/23 04:34:33;;;;;;;16.45;10.80;;;16.60;99.90;;;;;;5011193;28;20033;-70
2023/05/23 04:37:01;;;;;;;17.00;11.18;;;16.40;99.90;;;;;;5011329;28;20037;-70
2023/05/23 04:39:31;;;;;;;16.17;10.30;;;16.50;99.90;;;;;;5011375;28;20033;-70
2023/05/23 04:41:58;;;;;;;18.98;11.25;;;16.40;99.90;;;;;;5011677;28;20383;-70
2023/05/23 04:44:25;;;;;;;17.73;11.15;;;16.40;99.90;;;;;;5011100;28;20125;-70
2023/05/23 04:46:51;;;;;;;18.08;10.50;;;16.40;99.90;;;;;;5011036;28;20315;-69
2023/05/23 04:49:17;;;;;;;19.40;10.68;;;16.40;99.90;;;;;;5011037;28;20122;-69
2023/05/23 04:51:42;;;;;;;16.33;10.70;;;16.50;99.90;;;;;;5010702;28;20110;-70
2023/05/23 04:54:08;;;;;;;16.40;9.75;;;16.30;99.90;;;;;;5011620;28;20101;-70
2023/05/23 04:56:34;;;;;;;19.10;11.18;;;16.30;99.90;;;;;;5010978;28;20041;-70
2023/05/23 04:59:00;;;;;;;19.30;10.00;;;16.30;99.90;;;;;;5010913;28;20502;-68
2023/05/23 05:01:26;;;;;;;20.85;11.50;;;16.40;99.90;;;;;;5010958;28;20063;-70
2023/05/23 05:03:52;;;;;;;17.55;10.85;;;16.30;99.90;;;;;;5010667;28;20044;-71
2023/05/23 05:06:18;;;;;;;17.05;9.88;;;16.30;99.90;;;;;;4993447;28;20026;-70
2023/05/23 05:08:43;;;;;;;17.88;9.85;;;16.40;99.90;;;;;;5011281;28;20097;-71
2023/05/23 05:11:10;;;;;;;17.85;9.80;;;16.50;99.90;;;;;;5010636;28;20045;-71
2023/05/23 05:13:35;;;;;;;14.18;9.05;;;16.40;99.90;;;;;;5010730;28;20427;-70
2023/05/23 05:16:02;;;;;;;16.23;10.15;;;16.30;99.90;;;;;;5010594;28;20030;-71
2023/05/23 05:18:29;;;;;;;14.45;9.30;;;16.20;99.90;;;;;;4993127;28;20489;-70
2023/05/23 05:20:55;;;;;;;17.17;9.48;;;16.30;99.90;;;;;;5011309;28;20021;-69
2023/05/23 05:23:25;;;;;;;17.45;10.23;;;16.30;99.90;;;;;;5010478;28;20084;-69
2023/05/23 05:25:50;;;;;;;17.27;9.90;;;16.30;99.90;;;;;;5010721;28;20026;-69
2023/05/23 05:28:16;;;;;;;15.00;9.68;;;16.30;99.90;;;;;;4993170;28;20096;-69
2023/05/23 05:30:42;;;;;;;17.65;10.23;;;16.30;99.90;;;;;;5010260;28;20064;-69
2023/05/23 05:33:09;;;;;;;14.88;9.55;;;16.30;99.90;;;;;;5013833;28;20058;-69
2023/05/23 05:35:34;;;;;;;13.40;8.82;;;16.30;99.90;;;;;;4997179;28;20092;-69
2023/05/23 05:38:03;;;;;;;15.98;10.43;;;16.30;99.90;;;;;;5014424;28;20025;-68
2023/05/23 05:40:30;;;;;;;12.77;9.15;;;16.30;99.90;;;;;;5014495;28;20038;-69
2023/05/23 05:42:56;;;;;;;16.87;9.60;;;16.20;99.90;;;;;;5014451;28;20040;-69
2023/05/23 05:45:22;;;;;;;14.65;9.75;;;16.30;99.90;;;;;;5014040;28;20252;-70
2023/05/23 05:47:47;;;;;;;15.50;9.20;;;16.10;99.90;;;;;;5014717;28;20041;-69
2023/05/23 05:50:13;;;;;;;15.93;8.80;;;16.10;99.90;;;;;;4996731;28;20088;-69
2023/05/23 05:52:41;;;;;;;14.52;8.95;;;16.10;99.90;;;;;;5014063;28;20038;-69
2023/05/23 05:55:10;;;;;;;11.80;8.13;;;16.10;99.90;;;;;;5014057;28;20045;-69
2023/05/23 05:57:39;;;;;;;13.13;8.75;;;16.10;99.90;;;;;;5016578;28;22123;-69
2023/05/23 06:00:18;;;;;;;12.18;8.02;;;16.10;99.90;;;;;;5034378;28;20029;-68
2023/05/23 06:02:47;;;;;;;14.07;7.90;;;16.10;99.90;;;;;;5033687;28;20060;-68
2023/05/23 06:05:15;;;;;;;13.93;8.70;;;16.20;99.90;;;;;;5033619;28;20056;-69
2023/05/23 06:07:46;;;;;;;12.80;8.18;;;16.20;99.90;;;;;;5033703;28;20129;-71
2023/05/23 06:10:12;;;;;;;12.27;8.40;;;16.20;99.90;;;;;;5033566;28;20057;-69
2023/05/23 06:12:38;;;;;;;14.52;7.55;;;16.20;99.90;;;;;;5033391;28;20076;-69
2023/05/23 06:15:05;;;;;;;13.38;8.93;;;16.30;99.90;;;;;;5033972;28;20052;-74
2023/05/23 06:17:31;;;;;;;12.60;8.27;;;16.40;99.90;;;;;;5033476;28;20510;-70
2023/05/23 06:19:56;;;;;;;12.80;8.40;;;16.40;99.90;;;;;;5033298;28;20037;-69
2023/05/23 06:22:22;;;;;;;15.25;9.02;;;16.40;99.90;;;;;;5033215;28;20124;-70
2023/05/23 06:24:48;;;;;;;18.27;9.70;;;16.40;99.90;;;;;;5033217;28;20432;-71
2023/05/23 06:27:13;;;;;;;16.35;8.70;;;16.40;99.90;;;;;;5016333;28;20367;-70
2023/05/23 06:29:39;;;;;;;16.00;9.65;;;16.40;99.90;;;;;;5033332;28;20060;-71
2023/05/23 06:32:05;;;;;;;12.10;8.43;;;16.50;99.90;;;;;;5032933;28;20132;-71
2023/05/23 06:34:31;;;;;;;15.27;9.98;;;16.40;99.90;;;;;;5033237;28;20639;-70
2023/05/23 06:36:57;;;;;;;13.73;8.98;;;16.30;99.90;;;;;;5033623;28;20088;-73
2023/05/23 06:39:22;;;;;;;11.80;8.93;;;16.30;99.90;;;;;;5033345;28;20414;-72
2023/05/23 06:41:48;;;;;;;12.45;8.15;;;16.30;99.90;;;;;;5034120;28;20024;-72
2023/05/23 06:44:14;;;;;;;12.02;8.13;;;16.40;99.90;;;;;;5032999;28;20034;-71
2023/05/23 06:46:44;;;;;;;11.95;8.30;;;16.30;99.90;;;;;;5033127;28;20045;-72
2023/05/23 06:49:09;;;;;;;11.07;8.30;;;16.30;99.90;;;;;;5033450;28;20045;-73
2023/05/23 06:51:35;;;;;;;10.13;7.97;;;16.20;99.90;;;;;;5032880;28;20270;-71
2023/05/23 06:54:01;;;;;;;13.27;8.27;;;16.20;99.90;;;;;;5016063;28;20017;-71
2023/05/23 06:56:26;;;;;;;14.90;8.73;;;16.30;99.90;;;;;;5032837;28;20427;-70
2023/05/23 06:58:52;;;;;;;10.38;7.57;;;16.30;99.90;;;;;;5033146;28;20026;-72
2023/05/23 07:01:18;;;;;;;11.93;8.50;;;16.20;99.90;;;;;;5033048;28;20090;-72
2023/05/23 07:03:44;;;;;;;13.80;8.63;;;16.20;99.90;;;;;;5032764;28;20164;-70
2023/05/23 07:06:10;;;;;;;13.82;7.65;;;16.10;99.90;;;;;;5015925;28;20471;-71
2023/05/23 07:08:36;;;;;;;10.23;7.22;;;16.20;99.90;;;;;;5032786;28;20029;-70
2023/05/23 07:11:02;;;;;;;9.27;6.90;;;16.30;99.90;;;;;;5032312;28;20040;-70
2023/05/23 07:13:28;;;;;;;11.00;7.03;;;16.20;99.90;;;;;;5032481;28;20042;-70
2023/05/23 07:15:54;;;;;;;12.38;6.68;;;16.00;99.90;;;;;;5015039;28;20085;-71
2023/05/23 07:18:20;;;;;;;15.45;6.25;;;16.10;99.90;;;;;;5032378;28;20048;-72
2023/05/23 07:20:46;;;;;;;13.95;6.30;;;16.10;99.90;;;;;;5020059;28;20018;-69
2023/05/23 07:23:11;;;;;;;8.27;5.72;;;16.10;99.90;;;;;;5012363;28;20097;-69
2023/05/23 07:25:39;;;;;;;9.38;6.13;;;16.00;99.90;;;;;;5012093;28;20034;-68
2023/05/23 07:28:05;;;;;;;9.25;6.10;;;15.90;99.90;;;;;;4994953;28;20437;-69
2023/05/23 07:30:30;;;;;;;6.82;4.93;;;15.90;99.90;;;;;;5012214;28;20044;-68
2023/05/23 07:32:56;;;;;;;7.18;5.13;;;15.90;99.90;;;;;;5012835;28;20036;-69
2023/05/23 07:35:25;;;;;;;6.13;4.60;;;16.00;99.90;;;;;;5012551;28;20045;-70
2023/05/23 07:37:54;;;;;;;6.60;4.43;;;16.00;99.90;;;;;;4995008;28;20409;-71
2023/05/23 07:40:21;;;;;;;5.30;4.15;;;16.00;99.90;;;;;;5012349;28;20038;-71
2023/05/23 07:42:47;;;;;;;7.38;4.80;;;16.00;99.90;;;;;;5012594;28;20100;-71
2023/05/23 07:45:13;;;;;;;6.13;3.95;;;15.80;99.90;;;;;;5012872;28;20029;-71
2023/05/23 07:47:40;;;;;;;4.90;3.60;;;15.80;99.90;;;;;;5011247;28;20033;-71
2023/05/23 07:50:06;;;;;;;6.45;4.13;;;15.80;99.90;;;;;;5012262;28;20034;-70
2023/05/23 07:52:32;;;;;;;9.10;4.55;;;15.80;99.90;;;;;;5001647;28;20038;-70
2023/05/23 07:54:58;;;;;;;4.88;3.70;;;15.80;99.90;;;;;;4991653;28;20038;-71
2023/05/23 07:57:24;;;;;;;4.95;3.75;;;15.90;99.90;;;;;;4992365;28;20445;-71
2023/05/23 07:59:51;;;;;;;6.82;4.70;;;15.60;99.90;;;;;;4992789;28;20036;-72
2023/05/23 08:02:17;;;;;;;8.25;4.78;;;15.60;99.90;;;;;;4974977;28;20088;-73
2023/05/23 08:04:44;;;;;;;8.73;5.35;;;15.50;99.90;;;;;;4986491;28;20070;-71
2023/05/23 08:07:10;;;;;;;8.27;5.45;;;15.60;99.90;;;;;;5011510;28;20045;-70
2023/05/23 08:09:39;;;;;;;10.85;6.43;;;15.50;99.90;;;;;;5011615;28;20740;-69
2023/05/23 08:12:08;;;;;;;8.55;5.28;;;15.50;99.90;;;;;;5011874;28;20096;-70
2023/05/23 08:14:35;;;;;;;12.25;6.28;;;15.50;99.90;;;;;;5011698;28;20054;-72
2023/05/23 08:17:01;;;;;;;12.98;6.45;;;15.40;99.90;;;;;;5011484;28;20141;-71
2023/05/23 08:19:27;;;;;;;13.82;8.32;;;15.40;99.90;;;;;;5011957;28;20041;-70
2023/05/23 08:21:53;;;;;;;13.35;8.43;;;15.40;99.90;;;;;;5010495;28;20100;-72
2023/05/23 08:24:19;;;;;;;16.23;8.73;;;15.30;99.90;;;;;;5011808;28;20026;-72
2023/05/23 08:26:45;;;;;;;26.52;8.98;;;15.30;99.90;;;;;;5011949;28;20297;-71
2023/05/23 08:29:11;;;;;;;17.55;8.88;;;15.30;99.90;;;;;;4993890;28;20041;-70
2023/05/23 08:31:37;;;;;;;15.38;8.43;;;15.40;99.90;;;;;;5011142;28;20107;-71
2023/05/23 08:34:03;;;;;;;16.35;8.50;;;15.30;99.90;;;;;;5011326;28;20132;-71
2023/05/23 08:36:29;;;;;;;16.02;8.63;;;15.40;99.90;;;;;;4993785;28;20026;-72
2023/05/23 08:38:55;;;;;;;15.02;8.25;;;15.30;99.90;;;;;;5011883;28;20407;-71
2023/05/23 08:41:23;;;;;;;14.57;8.20;;;15.10;99.90;;;;;;5011649;28;20037;-72
2023/05/23 08:43:49;;;;;;;16.52;8.43;;;15.10;99.90;;;;;;5010471;28;20058;-71
2023/05/23 08:46:15;;;;;;;20.75;9.45;;;15.10;99.90;;;;;;5011187;28;20041;-71
2023/05/23 08:48:42;;;;;;;25.63;7.45;;;15.10;99.90;;;;;;5011527;28;20426;-71
2023/05/23 08:51:14;;;;;;;18.60;8.27;;;15.20;99.90;;;;;;5011909;28;20018;-70
2023/05/23 08:53:45;;;;;;;17.05;8.38;;;15.10;99.90;;;;;;5011379;28;20349;-72
2023/05/23 08:56:12;;;;;;;22.17;8.63;;;14.90;99.90;;;;;;5011403;28;20030;-72
2023/05/23 08:58:40;;;;;;;11.23;7.50;;;14.90;99.90;;;;;;5010350;28;20033;-70
2023/05/23 09:01:08;;;;;;;23.13;9.55;;;14.80;99.90;;;;;;5010707;28;20077;-71
2023/05/23 09:03:36;;;;;;;16.75;9.57;;;14.90;99.90;;;;;;5012240;28;20034;-70
2023/05/23 09:06:08;;;;;;;24.13;10.65;;;14.90;99.90;;;;;;5012922;28;20026;-70
2023/05/23 09:08:35;;;;;;;23.50;11.13;;;14.70;99.90;;;;;;4995465;28;20367;-69
2023/05/23 09:11:04;;;;;;;27.67;10.63;;;14.90;99.90;;;;;;5011623;28;20030;-71
2023/05/23 09:13:31;;;;;;;19.15;10.02;;;14.70;99.90;;;;;;5017608;28;20041;-72
2023/05/23 09:15:58;;;;;;;24.48;10.57;;;14.60;99.90;;;;;;5017470;28;20041;-72
2023/05/23 09:18:25;;;;;;;23.48;10.02;;;14.60;99.90;;;;;;5034672;28;20103;-71
2023/05/23 09:20:51;;;;;;;21.58;10.60;;;14.50;99.90;;;;;;5017000;28;20092;-73
2023/05/23 09:23:18;;;;;;;23.63;10.30;;;14.50;99.90;;;;;;5033771;28;20089;-72
2023/05/23 09:25:47;;;;;;;17.27;9.05;;;14.60;99.90;;;;;;5033747;28;20076;-72
2023/05/23 09:28:12;;;;;;;20.85;8.32;;;14.40;99.90;;;;;;5016315;28;20068;-71
2023/05/23 09:30:38;;;;;;;21.88;7.85;;;14.40;99.90;;;;;;5032165;28;20486;-70
2023/05/23 09:33:04;;;;;;;19.92;8.75;;;14.50;99.90;;;;;;5032601;28;20033;-69
2023/05/23 09:35:30;;;;;;;24.08;7.88;;;14.30;99.90;;;;;;5032512;28;20041;-69
2023/05/23 09:38:00;;;;;;;14.40;8.15;;;14.30;99.90;;;;;;5032516;28;20447;-70
2023/05/23 09:40:35;;;;;;;20.95;10.32;;;14.40;99.90;;;;;;5015119;28;20344;-69
2023/05/23 09:43:02;;;;;;;22.77;9.95;;;14.50;99.90;;;;;;5031708;28;20076;-69
2023/05/23 09:45:33;;;;;;;20.83;9.00;;;14.30;99.90;;;;;;5031566;28;20082;-69
2023/05/23 09:48:00;;;;;;;18.98;9.13;;;14.40;99.90;;;;;;5035577;28;20109;-71
2023/05/23 09:50:32;;;;;;;17.65;8.35;;;14.30;99.90;;;;;;5018077;28;20029;-71
2023/05/23 09:52:59;;;;;;;17.45;8.85;;;14.30;99.90;;;;;;5039329;28;20531;-70
2023/05/23 09:55:25;;;;;;;18.52;8.05;;;14.30;99.90;;;;;;5041758;28;20034;-72
2023/05/23 09:57:57;;;;;;;21.05;7.70;;;14.50;99.90;;;;;;5036282;28;20029;-71
2023/05/23 10:00:24;;;;;;;12.82;7.20;;;14.50;99.90;;;;;;5035806;28;20093;-71
2023/05/23 10:03:09;;;;;;;19.10;7.60;;;14.50;99.90;;;;;;5041777;28;20025;-72
2023/05/23 10:05:50;;;;;;;18.90;7.95;;;14.60;99.90;;;;;;5041827;28;20112;-72
2023/05/23 10:08:25;;;;;;;16.00;7.85;;;14.50;99.90;;;;;;5043080;28;20054;-71
2023/05/23 10:10:51;;;;;;;17.10;6.15;;;14.60;99.90;;;;;;5041695;28;20467;-71
2023/05/23 10:13:18;;;;;;;13.40;5.15;;;14.50;99.90;;;;;;5039526;28;20114;-70
2023/05/23 10:15:46;;;;;;;11.57;4.32;;;14.40;99.90;;;;;;5037147;28;20034;-71
2023/05/23 10:18:16;;;;;;;;;;;14.50;99.90;;;;;;5020124;28;20037;-72
2023/05/23 10:20:46;;;;;;;8.82;3.47;;;14.60;99.90;;;;;;5022787;28;19909;-72
2023/05/23 10:23:12;;;;;;;8.30;3.00;;;14.60;99.90;;;;;;5036946;28;20471;-72
2023/05/23 10:25:40;;;;;;;7.85;3.33;;;14.60;99.90;;;;;;5036420;28;20033;-71
2023/05/23 10:28:06;;;;;;;5.93;3.47;;;14.60;99.90;;;;;;5019210;28;20025;-71
2023/05/23 10:30:33;;;;;;;20.33;11.63;;;14.60;99.90;;;;;;5017809;28;20036;-71
2023/05/23 10:33:00;;;;;;;8.13;4.10;;;14.50;99.90;;;;;;5035937;28;20036;-71
2023/05/23 10:35:43;;;;;;;8.20;4.65;;;14.40;99.90;;;;;;5034437;28;20091;-71
2023/05/23 10:38:15;;;;;;;13.32;6.38;;;14.30;99.90;;;;;;5037031;28;20056;-71
2023/05/23 10:41:02;;;;;;;13.63;5.13;;;14.30;99.90;;;;;;5042089;28;20128;-70
2023/05/23 10:43:46;;;;;;;8.53;4.73;;;14.20;99.90;;;;;;5038545;28;20037;-71
2023/05/23 10:46:13;;;;;;;8.35;4.50;;;14.30;99.90;;;;;;5037077;28;20133;-71
2023/05/23 10:48:43;;;;;;;16.05;5.85;;;14.30;99.90;;;;;;5035936;28;20036;-71
2023/05/23 10:51:16;;;;;;;13.45;6.43;;;14.20;99.90;;;;;;5035341;28;20041;-71
2023/05/23 10:53:45;;;;;;;15.23;6.30;;;14.20;99.90;;;;;;5034050;28;20041;-71
2023/05/23 10:56:22;;;;;;;21.05;6.70;;;14.10;99.90;;;;;;5033645;28;20033;-70
2023/05/23 10:58:55;;;;;;;18.02;6.97;;;14.30;99.90;;;;;;5033940;28;20034;-70
2023/05/23 11:01:22;;;;;;;20.00;8.68;;;14.20;99.90;;;;;;5016290;28;20467;-71
2023/05/23 11:03:47;;;;;;;26.55;9.02;;;13.80;99.90;;;;;;5033721;28;20041;-72
2023/05/23 11:06:31;;;;;;;27.77;9.18;;;13.80;99.90;;;;;;5033999;28;20041;-71
2023/05/23 11:09:04;;;;;;;17.25;8.05;;;13.90;99.90;;;;;;5016022;28;20383;-73
2023/05/23 11:11:51;;;;;;;26.38;8.45;;;13.90;99.90;;;;;;5033096;28;20511;-72
2023/05/23 11:14:17;;;;;;;19.65;8.05;;;13.80;99.90;;;;;;5015399;28;20026;-71
2023/05/23 11:16:45;;;;;;;18.17;8.00;;;13.70;99.90;;;;;;5033115;28;20347;-71
2023/05/23 11:19:21;;;;;;;25.45;9.27;;;13.70;99.90;;;;;;5033529;28;20030;-72
2023/05/23 11:21:59;;;;;;;29.70;8.27;;;13.80;99.90;;;;;;5015633;28;20034;-71
2023/05/23 11:24:54;;;;;;;21.10;7.30;;;13.80;99.90;;;;;;5032791;28;20410;-71
2023/05/23 11:27:33;;;;;;;18.83;7.82;;;13.90;99.90;;;;;;5032847;28;20025;-71
2023/05/23 11:30:06;;;;;;;25.83;9.65;;;14.00;99.90;;;;;;5032487;28;20018;-70
2023/05/23 11:32:32;;;;;;;28.90;9.60;;;14.00;99.90;;;;;;5015276;28;20528;-70
2023/05/23 11:35:00;;;;;;;30.58;8.95;;;13.70;99.90;;;;;;5032929;28;20033;-69
2023/05/23 11:37:26;;;;;;;24.25;9.75;;;13.80;99.90;;;;;;5033318;28;20034;-71
2023/05/23 11:39:52;;;;;;;20.58;7.70;;;13.90;99.90;;;;;;5032700;28;20044;-71
2023/05/23 11:42:17;;;;;;;19.77;7.70;;;14.00;99.90;;;;;;5033498;28;20089;-71
2023/05/23 11:44:44;;;;;;;26.92;8.35;;;13.90;99.90;;;;;;5016242;28;20049;-73
2023/05/23 11:47:09;;;;;;;25.67;7.53;;;14.00;99.90;;;;;;5033144;28;20029;-72
2023/05/23 11:49:37;;;;;;;27.35;9.98;;;14.20;99.90;;;;;;5032680;28;20059;-73
2023/05/23 11:52:04;;;;;;;25.67;7.18;;;14.10;99.90;;;;;;5033052;28;20037;-74
2023/05/23 11:54:29;;;;;;;17.50;7.10;;;14.20;99.90;;;;;;5032424;28;20512;-72
2023/05/23 11:56:56;;;;;;;26.55;6.97;;;14.20;99.90;;;;;;5015693;28;20033;-73
2023/05/23 11:59:24;;;;;;;19.80;6.68;;;14.30;99.90;;;;;;5032725;28;20026;-73
2023/05/23 12:01:54;;;;;;;25.00;6.15;;;14.30;99.90;;;;;;5014996;28;20368;-73
2023/05/23 12:04:20;;;;;;;17.83;5.80;;;14.30;99.90;;;;;;5014502;28;20034;-74
2023/05/23 12:06:49;;;;;;;28.88;5.90;;;14.30;99.90;;;;;;5032141;28;20037;-72
2023/05/23 12:09:15;;;;;;;22.95;6.03;;;14.50;99.90;;;;;;5032750;28;20489;-73
2023/05/23 12:11:42;;;;;;;17.17;5.18;;;14.50;99.90;;;;;;5014962;28;20449;-72
2023/05/23 12:14:13;;;;;;;33.65;7.25;;;14.70;99.90;;;;;;5014848;28;20464;-74
2023/05/23 12:16:39;;;;;;;18.27;4.90;;;14.80;99.90;;;;;;5014839;28;20120;-72
2023/05/23 12:19:05;;;;;;;22.38;4.85;;;15.00;99.90;;;;;;5032169;28;20157;-72
2023/05/23 12:21:48;;;;;;;14.98;3.83;;;15.20;99.90;;;;;;5032263;28;20017;-72
2023/05/23 12:24:18;;;;;;;15.63;3.90;;;15.30;99.60;;;;;;5032099;28;20029;-70
2023/05/23 12:27:16;;;;;;;17.67;4.90;;;15.10;98.80;;;;;;5032363;28;20067;-70
2023/05/23 12:29:42;;;;;;;;;;;15.10;99.20;;;;;;4996585;28;20196;-72
2023/05/23 12:32:07;;;;;;;17.52;5.32;;;15.00;98.90;;;;;;5031631;28;19932;-73
2023/05/23 12:34:33;;;;;;;18.77;4.85;;;14.90;98.30;;;;;;5031381;28;20049;-70
2023/05/23 12:37:06;;;;;;;18.38;5.05;;;15.10;98.70;;;;;;5031748;28;20057;-72